Time;durP1;ratioP1;P1;durP2;ratioP2;P2;SDS_P1;SDS_P2;PMS_P1;PMS_P2;Temp;Humidity;BMP_temperature;BMP_pressure;BME280_temperature;BME280_humidity;BME280_pressure;Samples;Min_cycle;Max_cycle;Signal;HPM_P1;HPM_P2
2021/08/08 00:02:13;;;;;;;3.03;1.73;;;14.40;99.90;;;;;;5068386;28;20613;-89
2021/08/08 00:04:41;;;;;;;4.83;1.80;;;14.50;99.90;;;;;;5069047;28;20621;-89
2021/08/08 00:07:08;;;;;;;2.07;1.87;;;14.50;99.90;;;;;;5046814;28;20723;-90
2021/08/08 00:09:36;;;;;;;3.83;1.90;;;14.40;99.90;;;;;;5062644;28;20613;-89
2021/08/08 00:12:03;;;;;;;2.00;1.77;;;14.50;99.90;;;;;;5057668;28;20626;-90
2021/08/08 00:14:30;;;;;;;1.70;1.33;;;14.40;99.90;;;;;;5050751;28;20614;-90
2021/08/08 00:16:57;;;;;;;1.30;1.20;;;14.50;99.90;;;;;;5050398;28;20622;-89
2021/08/08 00:19:24;;;;;;;1.70;1.60;;;14.50;99.90;;;;;;5068288;28;20628;-90
2021/08/08 00:21:51;;;;;;;3.33;1.30;;;14.40;99.90;;;;;;5065235;28;21000;-92
2021/08/08 00:24:18;;;;;;;2.37;1.67;;;14.40;99.90;;;;;;5060715;28;20964;-90
2021/08/08 00:26:47;;;;;;;2.17;1.67;;;14.30;99.90;;;;;;5055610;28;20677;-91
2021/08/08 00:29:14;;;;;;;3.63;1.37;;;14.40;99.90;;;;;;5070530;28;20628;-90
2021/08/08 00:31:41;;;;;;;6.80;2.00;;;14.40;99.90;;;;;;5068053;28;21072;-89
2021/08/08 00:34:08;;;;;;;2.00;1.90;;;14.40;99.90;;;;;;5069825;28;20617;-89
2021/08/08 00:36:35;;;;;;;1.93;1.20;;;14.30;99.90;;;;;;5050758;28;20636;-88
2021/08/08 00:39:02;;;;;;;2.60;1.70;;;14.30;99.90;;;;;;5044732;28;20686;-87
2021/08/08 00:41:29;;;;;;;3.90;1.43;;;14.40;99.90;;;;;;5064144;28;20618;-88
2021/08/08 00:43:57;;;;;;;3.43;1.60;;;14.40;99.90;;;;;;5068741;28;20609;-89
2021/08/08 00:46:24;;;;;;;5.63;1.67;;;14.30;99.90;;;;;;5061361;28;20815;-87
2021/08/08 00:48:51;;;;;;;1.63;1.53;;;14.30;99.90;;;;;;5069405;28;20625;-87
2021/08/08 00:51:18;;;;;;;1.73;1.43;;;14.40;99.90;;;;;;5063236;28;20597;-89
2021/08/08 00:53:45;;;;;;;1.60;1.50;;;14.40;99.90;;;;;;5062657;28;20645;-89
2021/08/08 00:56:12;;;;;;;1.67;1.57;;;14.40;99.90;;;;;;5061501;28;20627;-88
2021/08/08 00:58:39;;;;;;;2.20;1.80;;;14.40;99.90;;;;;;5065827;28;20658;-88
2021/08/08 01:01:08;;;;;;;2.03;1.40;;;14.40;99.90;;;;;;5065881;28;20642;-88
2021/08/08 01:03:42;;;;;;;2.53;1.50;;;14.30;99.90;;;;;;5049625;28;20671;-88
2021/08/08 01:06:16;;;;;;;1.80;1.30;;;14.30;99.90;;;;;;5050161;28;20666;-88
2021/08/08 01:08:46;;;;;;;1.47;1.37;;;14.30;99.90;;;;;;5042408;28;21211;-87
2021/08/08 01:11:16;;;;;;;2.47;1.73;;;14.30;99.90;;;;;;5056222;28;20654;-88
2021/08/08 01:13:46;;;;;;;2.13;1.27;;;14.30;99.90;;;;;;5049141;28;20832;-88
2021/08/08 01:16:17;;;;;;;1.70;1.60;;;14.20;99.90;;;;;;5050026;28;20657;-89
2021/08/08 01:18:46;;;;;;;3.80;1.10;;;14.20;99.90;;;;;;5049896;28;21009;-89
2021/08/08 01:21:14;;;;;;;6.23;1.97;;;14.20;99.90;;;;;;5048636;28;20649;-87
2021/08/08 01:23:44;;;;;;;2.30;1.40;;;14.20;99.90;;;;;;5049576;28;20641;-88
2021/08/08 01:26:13;;;;;;;2.10;1.43;;;14.20;99.90;;;;;;5043063;28;20689;-87
2021/08/08 01:28:41;;;;;;;2.40;1.50;;;14.20;99.90;;;;;;5049416;28;20614;-88
2021/08/08 01:31:10;;;;;;;4.87;1.90;;;14.20;99.90;;;;;;5049113;28;21191;-88
2021/08/08 01:33:38;;;;;;;2.30;1.53;;;14.20;99.90;;;;;;5049301;28;20626;-88
2021/08/08 01:36:06;;;;;;;1.70;1.60;;;14.20;99.90;;;;;;5042295;28;20666;-88
2021/08/08 01:38:37;;;;;;;1.60;1.20;;;14.30;99.90;;;;;;5057250;28;20720;-87
2021/08/08 01:41:09;;;;;;;1.33;1.23;;;14.30;99.90;;;;;;5064749;28;21049;-88
2021/08/08 01:43:46;;;;;;;1.83;1.70;;;14.40;99.90;;;;;;5064052;28;20727;-88
2021/08/08 01:46:16;;;;;;;1.20;1.20;;;14.40;99.90;;;;;;5067777;28;20652;-88
2021/08/08 01:48:48;;;;;;;2.70;1.97;;;14.40;99.90;;;;;;5056126;28;20982;-88
2021/08/08 01:51:16;;;;;;;1.70;1.60;;;14.40;99.90;;;;;;5057916;28;20654;-87
2021/08/08 01:53:46;;;;;;;1.57;1.30;;;14.30;99.90;;;;;;5047780;28;20614;-88
2021/08/08 01:56:14;;;;;;;1.87;1.77;;;14.30;99.90;;;;;;5057346;28;20630;-88
2021/08/08 01:58:43;;;;;;;1.60;1.43;;;14.30;99.90;;;;;;5067140;28;20678;-88
2021/08/08 02:01:10;;;;;;;2.60;1.10;;;14.30;99.90;;;;;;5066925;28;20623;-88
2021/08/08 02:03:40;;;;;;;3.37;1.30;;;14.30;99.90;;;;;;5069010;28;20735;-87
2021/08/08 02:06:09;;;;;;;1.20;1.10;;;14.20;99.90;;;;;;5052141;28;20653;-85
2021/08/08 02:08:40;;;;;;;3.83;1.53;;;14.30;99.90;;;;;;5058318;28;20634;-88
2021/08/08 02:11:09;;;;;;;1.73;1.63;;;14.20;99.90;;;;;;5050958;28;20688;-87
2021/08/08 02:13:38;;;;;;;1.40;1.30;;;14.20;99.90;;;;;;5063035;28;20621;-88
2021/08/08 02:16:08;;;;;;;1.20;1.10;;;14.10;99.90;;;;;;5061635;28;21262;-88
2021/08/08 02:18:38;;;;;;;1.90;1.20;;;14.10;99.90;;;;;;5057486;28;20763;-88
2021/08/08 02:21:06;;;;;;;2.73;1.60;;;14.10;99.90;;;;;;5059739;28;20989;-88
2021/08/08 02:23:34;;;;;;;1.87;1.53;;;14.10;99.90;;;;;;5063051;28;20668;-87
2021/08/08 02:26:02;;;;;;;3.27;1.50;;;14.10;99.90;;;;;;5053822;28;21106;-88
2021/08/08 02:28:30;;;;;;;2.30;2.03;;;14.10;99.90;;;;;;5060117;28;21263;-87
2021/08/08 02:30:59;;;;;;;2.20;1.70;;;14.00;99.90;;;;;;5065793;28;20629;-88
2021/08/08 02:33:37;;;;;;;2.00;1.47;;;14.00;99.90;;;;;;5053658;28;20626;-88
2021/08/08 02:36:05;;;;;;;1.67;1.20;;;14.00;99.90;;;;;;5057816;28;20632;-88
2021/08/08 02:38:39;;;;;;;1.30;1.17;;;14.00;99.90;;;;;;5062563;28;21013;-88
2021/08/08 02:41:08;;;;;;;5.77;1.40;;;14.10;99.90;;;;;;5066073;28;20687;-88
2021/08/08 02:43:37;;;;;;;1.27;1.20;;;14.10;99.90;;;;;;5058462;28;20614;-88
2021/08/08 02:46:04;;;;;;;1.70;1.60;;;14.10;99.90;;;;;;5056533;28;20658;-88
2021/08/08 02:48:32;;;;;;;2.87;1.70;;;14.00;99.90;;;;;;5067476;28;20616;-87
2021/08/08 02:51:01;;;;;;;4.17;1.57;;;14.00;99.90;;;;;;5068519;28;20614;-88
2021/08/08 02:53:28;;;;;;;1.73;1.60;;;14.10;99.90;;;;;;5051597;28;20654;-87
2021/08/08 02:55:55;;;;;;;1.03;1.03;;;14.00;99.90;;;;;;5064695;28;21306;-87
2021/08/08 02:58:22;;;;;;;2.07;1.87;;;14.00;99.90;;;;;;5064105;28;20618;-87
2021/08/08 03:00:49;;;;;;;1.80;1.40;;;13.90;99.90;;;;;;5056275;28;20617;-88
2021/08/08 03:03:17;;;;;;;1.73;1.30;;;13.90;99.90;;;;;;5068367;28;21233;-88
2021/08/08 03:05:45;;;;;;;1.70;1.60;;;13.90;99.90;;;;;;5082556;28;20730;-87
2021/08/08 03:08:15;;;;;;;1.50;1.40;;;13.90;99.90;;;;;;5055407;28;21174;-88
2021/08/08 03:10:44;;;;;;;1.93;1.77;;;13.90;99.90;;;;;;5045797;28;20672;-87
2021/08/08 03:13:11;;;;;;;2.77;1.60;;;13.90;99.90;;;;;;5058232;28;20625;-88
2021/08/08 03:15:40;;;;;;;1.93;1.70;;;13.80;99.90;;;;;;5053942;28;20982;-88
2021/08/08 03:18:09;;;;;;;1.83;1.40;;;13.90;99.90;;;;;;5058335;28;20643;-88
2021/08/08 03:20:36;;;;;;;3.40;2.00;;;13.90;99.90;;;;;;5067068;28;21034;-88
2021/08/08 03:23:04;;;;;;;1.93;1.73;;;13.90;99.90;;;;;;5058856;28;20638;-88
2021/08/08 03:25:34;;;;;;;6.13;2.00;;;13.90;99.90;;;;;;5060224;28;20657;-87
2021/08/08 03:28:02;;;;;;;4.40;2.17;;;13.90;99.90;;;;;;5070210;28;20660;-88
2021/08/08 03:30:30;;;;;;;3.50;3.20;;;13.90;99.90;;;;;;5071274;28;20613;-88
2021/08/08 03:32:59;;;;;;;4.43;2.93;;;13.90;99.90;;;;;;5062845;28;20629;-87
2021/08/08 03:35:27;;;;;;;3.73;2.97;;;13.90;99.90;;;;;;5065864;28;20633;-87
2021/08/08 03:37:55;;;;;;;2.93;2.73;;;13.90;99.90;;;;;;5069629;28;20702;-87
2021/08/08 03:40:24;;;;;;;3.33;2.53;;;13.80;99.90;;;;;;5064134;28;20701;-87
2021/08/08 03:42:53;;;;;;;2.80;2.20;;;13.80;99.90;;;;;;5064661;28;20961;-86
2021/08/08 03:45:21;;;;;;;2.07;1.90;;;13.80;99.90;;;;;;5065406;28;20637;-87
2021/08/08 03:47:50;;;;;;;2.10;1.87;;;13.80;99.90;;;;;;5053080;28;21196;-87
2021/08/08 03:50:22;;;;;;;2.30;2.10;;;13.80;99.90;;;;;;5051133;28;20628;-87
2021/08/08 03:52:52;;;;;;;1.73;1.63;;;13.60;99.90;;;;;;5067694;28;20628;-88
2021/08/08 03:55:20;;;;;;;2.60;1.60;;;13.60;99.90;;;;;;5049889;28;20661;-87
2021/08/08 03:57:48;;;;;;;4.93;2.03;;;13.60;99.90;;;;;;5052517;28;20716;-88
2021/08/08 04:00:17;;;;;;;3.20;1.83;;;13.70;99.90;;;;;;5070276;28;20617;-87
2021/08/08 04:02:45;;;;;;;1.60;1.50;;;13.70;99.90;;;;;;5050088;28;20744;-85
2021/08/08 04:05:14;;;;;;;2.47;2.27;;;13.70;99.90;;;;;;5050758;28;21278;-87
2021/08/08 04:07:42;;;;;;;2.10;1.70;;;13.70;99.90;;;;;;5050259;28;20664;-87
2021/08/08 04:10:11;;;;;;;1.53;1.23;;;13.60;99.90;;;;;;5043640;28;20649;-87
2021/08/08 04:12:41;;;;;;;2.13;1.80;;;13.60;99.90;;;;;;5049259;28;20699;-87
2021/08/08 04:15:10;;;;;;;2.40;1.73;;;13.60;99.90;;;;;;5050528;28;20650;-86
2021/08/08 04:17:40;;;;;;;2.20;1.60;;;13.50;99.90;;;;;;5050130;28;20618;-87
2021/08/08 04:20:10;;;;;;;6.77;2.00;;;13.50;99.90;;;;;;5050309;28;20641;-87
2021/08/08 04:22:39;;;;;;;1.57;1.47;;;13.60;99.90;;;;;;5049816;28;21205;-87
2021/08/08 04:25:07;;;;;;;2.50;2.30;;;13.60;99.90;;;;;;5050295;28;20706;-87
2021/08/08 04:27:34;;;;;;;2.27;2.00;;;13.60;99.90;;;;;;5062166;28;21225;-86
2021/08/08 04:30:03;;;;;;;1.87;1.63;;;13.70;99.90;;;;;;5070208;28;20633;-87
2021/08/08 04:32:32;;;;;;;2.03;1.80;;;13.60;99.90;;;;;;5056872;28;20623;-87
2021/08/08 04:35:03;;;;;;;2.83;1.77;;;13.60;99.90;;;;;;5056630;28;21084;-87
2021/08/08 04:37:31;;;;;;;1.70;1.60;;;13.70;99.90;;;;;;5063884;28;20638;-87
2021/08/08 04:40:00;;;;;;;1.93;1.73;;;13.60;99.90;;;;;;5052337;28;21161;-87
2021/08/08 04:42:28;;;;;;;5.40;2.17;;;13.70;99.90;;;;;;5049642;28;21002;-87
2021/08/08 04:44:57;;;;;;;5.90;1.90;;;13.70;99.90;;;;;;5059193;28;20679;-87
2021/08/08 04:47:26;;;;;;;4.30;2.20;;;13.60;99.90;;;;;;5069870;28;20652;-87
2021/08/08 04:49:54;;;;;;;13.13;1.87;;;13.60;99.90;;;;;;5062276;28;21072;-87
2021/08/08 04:52:24;;;;;;;2.83;2.40;;;13.60;99.90;;;;;;5054995;28;20627;-87
2021/08/08 04:54:52;;;;;;;5.53;1.70;;;13.70;99.90;;;;;;5058803;28;20669;-87
2021/08/08 04:57:20;;;;;;;2.13;2.03;;;13.80;99.90;;;;;;5050159;28;20607;-87
2021/08/08 04:59:48;;;;;;;1.77;1.67;;;13.70;99.90;;;;;;5062195;28;20625;-88
2021/08/08 05:02:20;;;;;;;2.60;1.90;;;13.60;99.90;;;;;;5055889;28;20695;-87
2021/08/08 05:04:48;;;;;;;2.67;1.53;;;13.60;99.90;;;;;;5068013;28;20666;-87
2021/08/08 05:07:16;;;;;;;4.40;1.63;;;13.60;99.90;;;;;;5062325;28;20763;-87
2021/08/08 05:09:45;;;;;;;1.70;1.57;;;13.60;99.90;;;;;;5060395;28;20679;-86
2021/08/08 05:12:12;;;;;;;3.33;3.03;;;13.80;99.90;;;;;;5048205;28;20607;-87
2021/08/08 05:14:40;;;;;;;3.97;3.67;;;13.80;99.90;;;;;;5049813;28;20614;-87
2021/08/08 05:17:07;;;;;;;2.67;2.47;;;13.80;99.90;;;;;;5049436;28;20721;-86
2021/08/08 05:19:35;;;;;;;1.93;1.60;;;13.90;99.90;;;;;;5049295;28;20696;-87
2021/08/08 05:22:03;;;;;;;1.77;1.67;;;13.90;99.90;;;;;;5048819;28;20638;-87
2021/08/08 05:24:31;;;;;;;2.10;1.53;;;13.90;99.90;;;;;;5044832;28;20690;-87
2021/08/08 05:27:00;;;;;;;2.27;1.90;;;14.00;99.90;;;;;;5047118;28;20749;-87
2021/08/08 05:29:28;;;;;;;2.67;1.90;;;14.00;99.90;;;;;;5049785;28;20708;-87
2021/08/08 05:31:56;;;;;;;2.20;1.50;;;14.00;99.90;;;;;;5047911;28;20691;-87
2021/08/08 05:34:24;;;;;;;1.80;1.70;;;14.00;99.90;;;;;;5049184;28;20665;-86
2021/08/08 05:36:52;;;;;;;2.50;2.37;;;14.10;99.90;;;;;;5051937;28;20674;-87
2021/08/08 05:39:20;;;;;;;1.60;1.50;;;14.30;99.90;;;;;;5073866;28;20679;-87
2021/08/08 05:41:48;;;;;;;1.50;1.40;;;14.30;99.90;;;;;;5073145;28;20626;-88
2021/08/08 05:44:17;;;;;;;1.20;1.10;;;14.30;99.90;;;;;;5070128;28;20653;-86
2021/08/08 05:46:45;;;;;;;1.70;1.60;;;14.40;99.90;;;;;;5073926;28;20648;-87
2021/08/08 05:49:13;;;;;;;3.87;2.33;;;14.50;99.90;;;;;;5073032;28;20617;-87
2021/08/08 05:51:41;;;;;;;1.77;1.40;;;14.50;99.90;;;;;;5073389;28;20700;-87
2021/08/08 05:54:08;;;;;;;2.70;1.23;;;14.60;99.90;;;;;;5073968;28;20627;-87
2021/08/08 05:56:36;;;;;;;1.50;1.40;;;14.70;99.90;;;;;;5073845;28;20613;-87
2021/08/08 05:59:04;;;;;;;1.27;1.17;;;14.80;99.90;;;;;;5072574;28;20644;-88
2021/08/08 06:01:33;;;;;;;2.93;1.30;;;14.80;99.90;;;;;;5069814;28;20678;-87
2021/08/08 06:04:01;;;;;;;2.23;1.30;;;14.80;99.90;;;;;;5053438;28;20991;-87
2021/08/08 06:06:31;;;;;;;3.50;1.33;;;14.90;99.90;;;;;;5063459;28;20625;-88
2021/08/08 06:08:59;;;;;;;2.43;1.23;;;15.00;99.90;;;;;;5073825;28;20645;-87
2021/08/08 06:11:26;;;;;;;1.17;1.17;;;15.00;99.90;;;;;;5072370;28;20624;-87
2021/08/08 06:13:54;;;;;;;3.30;1.37;;;15.10;99.90;;;;;;5072869;28;20659;-87
2021/08/08 06:16:22;;;;;;;1.67;1.27;;;15.30;99.90;;;;;;5073412;28;20618;-88
2021/08/08 06:18:51;;;;;;;1.50;1.03;;;15.40;99.90;;;;;;5073133;28;20634;-88
2021/08/08 06:21:18;;;;;;;2.03;1.37;;;15.40;99.90;;;;;;5052813;28;21002;-89
2021/08/08 06:23:45;;;;;;;3.00;1.20;;;15.50;99.90;;;;;;5053042;28;20623;-88
2021/08/08 06:26:13;;;;;;;1.30;1.20;;;15.50;99.90;;;;;;5052406;28;20716;-88
2021/08/08 06:28:41;;;;;;;1.40;1.23;;;15.60;99.90;;;;;;5050470;28;20666;-90
2021/08/08 06:31:08;;;;;;;1.30;1.10;;;15.60;99.90;;;;;;5070781;28;20621;-86
2021/08/08 06:33:35;;;;;;;2.27;1.53;;;15.70;99.90;;;;;;5091833;28;20735;-89
2021/08/08 06:36:04;;;;;;;1.93;1.23;;;15.70;99.90;;;;;;5092365;28;20628;-88
2021/08/08 06:38:31;;;;;;;2.83;1.37;;;15.80;99.90;;;;;;5091636;28;20666;-88
2021/08/08 06:40:58;;;;;;;2.33;2.10;;;15.90;99.90;;;;;;5091930;28;20613;-89
2021/08/08 06:43:25;;;;;;;2.80;1.60;;;16.00;99.90;;;;;;5091471;28;20988;-89
2021/08/08 06:45:52;;;;;;;1.00;1.00;;;16.00;99.90;;;;;;5088183;28;20621;-88
2021/08/08 06:48:19;;;;;;;7.27;1.30;;;16.10;99.90;;;;;;5070396;28;21097;-90
2021/08/08 06:50:46;;;;;;;4.63;1.40;;;16.20;99.90;;;;;;5055954;28;20631;-88
2021/08/08 06:53:14;;;;;;;1.37;1.27;;;16.20;99.90;;;;;;5061719;28;20620;-89
2021/08/08 06:55:41;;;;;;;1.53;1.47;;;16.20;99.90;;;;;;5070292;28;20682;-89
2021/08/08 06:58:08;;;;;;;1.10;1.00;;;16.30;99.90;;;;;;5070680;28;20615;-89
2021/08/08 07:00:35;;;;;;;2.50;1.27;;;16.40;99.90;;;;;;5069067;28;20625;-89
2021/08/08 07:03:02;;;;;;;4.87;1.50;;;16.60;99.90;;;;;;5068692;28;20659;-87
2021/08/08 07:05:29;;;;;;;1.23;1.13;;;16.80;99.90;;;;;;5059527;28;20617;-88
2021/08/08 07:07:56;;;;;;;1.80;1.30;;;16.90;99.90;;;;;;5068702;28;20654;-88
2021/08/08 07:10:24;;;;;;;1.43;1.33;;;16.90;99.90;;;;;;5051734;28;21178;-88
2021/08/08 07:12:51;;;;;;;2.20;1.37;;;16.90;99.90;;;;;;5050703;28;20613;-89
2021/08/08 07:15:19;;;;;;;1.60;1.40;;;17.10;99.90;;;;;;5063242;28;20634;-89
2021/08/08 07:17:45;;;;;;;1.73;1.63;;;17.40;99.90;;;;;;5052518;28;20633;-90
2021/08/08 07:20:13;;;;;;;1.80;1.70;;;17.50;99.90;;;;;;5061984;28;20616;-90
2021/08/08 07:22:40;;;;;;;1.80;1.70;;;17.70;99.90;;;;;;5062884;28;20709;-91
2021/08/08 07:25:09;;;;;;;2.00;1.47;;;17.90;99.90;;;;;;5064110;28;20683;-90
2021/08/08 07:27:38;;;;;;;1.67;1.47;;;17.80;99.90;;;;;;5051606;28;20675;-90
2021/08/08 07:30:06;;;;;;;2.90;1.90;;;17.90;99.90;;;;;;5059969;28;21204;-89
2021/08/08 07:32:33;;;;;;;2.80;1.50;;;18.00;99.90;;;;;;5065573;28;20614;-88
2021/08/08 07:35:02;;;;;;;1.90;1.80;;;18.20;99.90;;;;;;5070419;28;20723;-89
2021/08/08 07:37:29;;;;;;;1.53;1.43;;;18.20;99.90;;;;;;5069037;28;21394;-89
2021/08/08 07:39:57;;;;;;;1.90;1.67;;;18.10;99.90;;;;;;5063690;28;20631;-86
2021/08/08 07:42:24;;;;;;;2.27;1.50;;;18.20;99.90;;;;;;5051187;28;21017;-88
2021/08/08 07:44:53;;;;;;;1.50;1.23;;;18.00;99.90;;;;;;5069221;28;20616;-86
2021/08/08 07:47:19;;;;;;;1.37;1.30;;;18.00;99.90;;;;;;5057954;28;20602;-88
2021/08/08 07:49:46;;;;;;;1.10;1.10;;;17.90;99.90;;;;;;5048991;28;21025;-89
2021/08/08 07:52:13;;;;;;;1.43;1.33;;;18.10;99.90;;;;;;5065448;28;20618;-87
2021/08/08 07:54:40;;;;;;;1.83;1.33;;;18.20;99.90;;;;;;5069830;28;21012;-88
2021/08/08 07:57:07;;;;;;;1.50;1.40;;;18.20;99.90;;;;;;5071237;28;20620;-89
2021/08/08 07:59:34;;;;;;;1.40;1.30;;;18.30;99.90;;;;;;5071104;28;20602;-90
2021/08/08 08:02:03;;;;;;;2.37;1.47;;;18.50;99.80;;;;;;5069124;28;20721;-90
2021/08/08 08:04:30;;;;;;;1.60;1.50;;;18.60;99.50;;;;;;5071279;28;20646;-89
2021/08/08 08:06:58;;;;;;;2.50;1.40;;;18.50;98.70;;;;;;5064241;28;20696;-88
2021/08/08 08:09:25;;;;;;;2.50;2.30;;;18.20;99.10;;;;;;5069457;28;20664;-90
2021/08/08 08:11:52;;;;;;;6.23;3.20;;;18.20;99.90;;;;;;5062909;28;20676;-89
2021/08/08 08:14:19;;;;;;;3.90;1.73;;;18.30;99.80;;;;;;5050348;28;20656;-91
2021/08/08 08:16:46;;;;;;;2.13;1.97;;;18.40;99.10;;;;;;5051001;28;20638;-89
2021/08/08 08:19:15;;;;;;;1.47;1.37;;;18.40;99.60;;;;;;5055666;28;20627;-91
2021/08/08 08:21:42;;;;;;;1.47;1.37;;;18.30;98.80;;;;;;5058131;28;20642;-89
2021/08/08 08:24:09;;;;;;;1.93;1.63;;;18.40;99.80;;;;;;5059730;28;20658;-91
2021/08/08 08:26:36;;;;;;;2.43;1.40;;;18.40;98.40;;;;;;5048429;28;20986;-90
2021/08/08 08:29:03;;;;;;;1.13;1.13;;;18.60;97.90;;;;;;5049651;28;20664;-90
2021/08/08 08:31:30;;;;;;;4.80;1.90;;;18.40;96.90;;;;;;5049547;28;20630;-91
2021/08/08 08:33:57;;;;;;;2.10;1.50;;;18.60;98.90;;;;;;5050473;28;20637;-89
2021/08/08 08:36:26;;;;;;;1.70;1.60;;;18.70;97.60;;;;;;5050199;28;20618;-92
2021/08/08 08:38:53;;;;;;;1.53;1.43;;;18.70;96.10;;;;;;5050001;28;20726;-88
2021/08/08 08:41:30;;;;;;;1.63;1.53;;;18.60;95.90;;;;;;5049697;28;21003;-87
2021/08/08 08:43:58;;;;;;;2.47;2.20;;;18.50;97.60;;;;;;5050737;28;21021;-90
2021/08/08 08:46:26;;;;;;;4.80;1.43;;;18.70;97.60;;;;;;5050027;28;20730;-90
2021/08/08 08:48:54;;;;;;;1.67;1.30;;;18.90;95.40;;;;;;5050336;28;20686;-89
2021/08/08 08:51:29;;;;;;;4.33;1.90;;;18.80;95.20;;;;;;5049012;28;20674;-89
2021/08/08 08:53:58;;;;;;;4.57;1.67;;;18.80;95.80;;;;;;5048639;28;20622;-90
2021/08/08 08:56:26;;;;;;;1.40;1.30;;;18.60;96.70;;;;;;5048720;28;20619;-91
2021/08/08 08:58:55;;;;;;;2.80;1.60;;;18.70;96.50;;;;;;5049008;28;21124;-91
2021/08/08 09:01:26;;;;;;;2.50;1.70;;;18.60;96.70;;;;;;5048363;28;20626;-92
2021/08/08 09:03:56;;;;;;;1.83;1.73;;;18.50;97.60;;;;;;5049709;28;20662;-92
2021/08/08 09:06:37;;;;;;;1.40;1.30;;;18.50;96.80;;;;;;5049161;28;20638;-90
2021/08/08 09:09:04;;;;;;;2.50;1.43;;;18.40;96.30;;;;;;5049720;28;20777;-90
2021/08/08 09:11:39;;;;;;;2.80;1.70;;;18.40;96.80;;;;;;5050271;28;20614;-91
2021/08/08 09:14:06;;;;;;;2.30;1.40;;;18.60;97.50;;;;;;5055865;28;21006;-88
2021/08/08 09:16:50;;;;;;;1.87;1.30;;;18.60;97.10;;;;;;5048988;28;20646;-92
2021/08/08 09:19:29;;;;;;;2.00;1.27;;;18.70;96.60;;;;;;5059079;28;21065;-91
2021/08/08 09:22:20;;;;;;;3.20;1.60;;;18.80;95.70;;;;;;5057481;28;20653;-91
2021/08/08 09:24:53;;;;;;;1.87;1.30;;;19.00;96.10;;;;;;5068559;28;20639;-93
2021/08/08 09:27:30;;;;;;;2.20;1.70;;;19.30;96.20;;;;;;5062922;28;20722;-90
2021/08/08 09:29:58;;;;;;;1.87;1.77;;;19.70;95.10;;;;;;5060944;28;21202;-92
2021/08/08 09:32:33;;;;;;;1.53;1.30;;;20.00;94.80;;;;;;5073810;28;20633;-91
2021/08/08 09:35:08;;;;;;;2.60;1.70;;;20.30;95.00;;;;;;5056946;28;20677;-86
2021/08/08 09:37:37;;;;;;;2.60;1.43;;;20.40;93.00;;;;;;5069254;28;20648;-89
2021/08/08 09:40:14;;;;;;;2.00;1.30;;;20.20;93.70;;;;;;5072045;28;20765;-92
2021/08/08 09:42:47;;;;;;;2.07;1.70;;;20.30;93.10;;;;;;5061369;28;20696;-91
2021/08/08 09:45:17;;;;;;;1.43;1.33;;;20.60;91.60;;;;;;5061973;28;20631;-90
2021/08/08 09:47:49;;;;;;;2.07;1.53;;;20.80;90.40;;;;;;5065512;28;20632;-92
2021/08/08 09:50:17;;;;;;;2.63;1.50;;;20.80;92.00;;;;;;5061912;28;20664;-91
2021/08/08 09:52:53;;;;;;;1.77;1.63;;;20.70;90.80;;;;;;5061001;28;20636;-91
2021/08/08 09:55:23;;;;;;;1.30;1.13;;;20.60;91.70;;;;;;5068388;28;20650;-91
2021/08/08 09:57:50;;;;;;;1.80;1.70;;;20.70;89.30;;;;;;5072981;28;20619;-92
2021/08/08 10:00:33;;;;;;;2.67;1.43;;;20.80;90.50;;;;;;5070594;28;20632;-92
2021/08/08 10:03:21;;;;;;;;;;;;;;;;;;;;;
2021/08/08 10:05:54;;;;;;;1.67;1.57;;;21.10;90.00;;;;;;5053665;28;20641;-90
2021/08/08 10:08:25;;;;;;;2.13;1.40;;;21.30;87.20;;;;;;5056334;28;20653;-88
2021/08/08 10:10:53;;;;;;;3.27;1.97;;;20.90;87.40;;;;;;5053344;28;20717;-88
2021/08/08 10:13:33;;;;;;;2.63;1.40;;;20.80;88.00;;;;;;5048915;28;20665;-89
2021/08/08 10:16:04;;;;;;;2.27;1.57;;;20.50;88.20;;;;;;5052361;28;20693;-89
2021/08/08 10:18:39;;;;;;;2.03;1.30;;;20.50;87.80;;;;;;5062363;28;20662;-89
2021/08/08 10:21:09;;;;;;;1.40;1.30;;;20.50;88.00;;;;;;5051326;28;20685;-89
2021/08/08 10:23:40;;;;;;;1.37;1.27;;;20.90;89.80;;;;;;5047635;28;21186;-90
2021/08/08 10:26:09;;;;;;;1.43;1.27;;;21.00;90.80;;;;;;5055267;28;20640;-90
2021/08/08 10:28:39;;;;;;;1.77;1.40;;;21.10;90.40;;;;;;5053883;28;21233;-91
2021/08/08 10:31:17;;;;;;;1.43;1.27;;;21.20;86.60;;;;;;5057876;28;20629;-92
2021/08/08 10:33:55;;;;;;;1.27;1.20;;;21.40;86.20;;;;;;5074038;28;20693;-88
2021/08/08 10:36:24;;;;;;;2.37;1.47;;;21.50;85.00;;;;;;5053258;28;20639;-90
2021/08/08 10:39:06;;;;;;;1.37;1.27;;;21.90;85.80;;;;;;5052953;28;21023;-89
2021/08/08 10:41:34;;;;;;;4.20;1.67;;;22.20;85.10;;;;;;5056211;28;20643;-89
2021/08/08 10:44:12;;;;;;;2.80;1.63;;;22.00;81.50;;;;;;5063405;28;20624;-90
2021/08/08 10:46:50;;;;;;;2.13;1.30;;;21.60;81.70;;;;;;5065141;28;20973;-91
2021/08/08 10:49:27;;;;;;;1.17;1.07;;;21.80;81.90;;;;;;5059389;28;20745;-88
2021/08/08 10:51:59;;;;;;;2.93;1.27;;;21.70;79.80;;;;;;5069561;28;21201;-89
2021/08/08 10:54:39;;;;;;;1.40;1.30;;;21.70;79.70;;;;;;5066388;28;20639;-88
2021/08/08 10:57:11;;;;;;;1.57;1.47;;;21.70;84.40;;;;;;5072331;28;20648;-87
2021/08/08 10:59:44;;;;;;;3.60;1.70;;;21.50;81.40;;;;;;5070749;28;20677;-88
2021/08/08 11:02:13;;;;;;;1.50;1.40;;;21.50;82.80;;;;;;5070247;28;20632;-88
2021/08/08 11:04:40;;;;;;;5.27;1.53;;;21.60;81.40;;;;;;5071389;28;20625;-88
2021/08/08 11:07:07;;;;;;;3.80;2.07;;;22.00;85.70;;;;;;5070199;28;20654;-89
2021/08/08 11:09:38;;;;;;;2.00;1.53;;;22.10;81.00;;;;;;5059451;28;21003;-87
2021/08/08 11:12:06;;;;;;;2.30;1.70;;;22.30;79.30;;;;;;5064815;28;21144;-88
2021/08/08 11:14:33;;;;;;;2.10;1.43;;;22.20;80.90;;;;;;5068510;28;20624;-88
2021/08/08 11:17:02;;;;;;;1.27;1.27;;;22.30;79.00;;;;;;5065080;28;20627;-87
2021/08/08 11:19:36;;;;;;;3.17;1.97;;;22.60;81.20;;;;;;5057008;28;21051;-89
2021/08/08 11:22:09;;;;;;;4.20;1.50;;;22.80;82.80;;;;;;5066347;28;20653;-87
2021/08/08 11:24:38;;;;;;;1.97;1.43;;;23.00;81.60;;;;;;5069026;28;21243;-88
2021/08/08 11:27:06;;;;;;;1.27;1.17;;;23.00;79.00;;;;;;5062822;28;20642;-88
2021/08/08 11:29:41;;;;;;;1.37;1.27;;;23.10;77.10;;;;;;5062266;28;20697;-90
2021/08/08 11:32:09;;;;;;;1.00;1.00;;;23.10;76.50;;;;;;5064171;28;20754;-89
2021/08/08 11:34:37;;;;;;;1.57;1.40;;;23.10;75.90;;;;;;5059450;28;20617;-89
2021/08/08 11:37:05;;;;;;;1.37;1.17;;;23.50;75.70;;;;;;5059489;28;20626;-88
2021/08/08 11:39:35;;;;;;;1.90;1.47;;;24.00;72.10;;;;;;5062412;28;20645;-88
2021/08/08 11:42:10;;;;;;;2.30;1.70;;;24.30;72.90;;;;;;5055214;28;20990;-86
2021/08/08 11:44:42;;;;;;;3.63;1.50;;;24.10;74.10;;;;;;5056384;28;20626;-90
2021/08/08 11:47:11;;;;;;;1.43;1.33;;;24.10;70.90;;;;;;5065567;28;20777;-90
2021/08/08 11:49:44;;;;;;;4.00;1.10;;;24.60;71.20;;;;;;5064148;28;20693;-88
2021/08/08 11:52:15;;;;;;;1.57;1.10;;;24.70;67.80;;;;;;5063400;28;20630;-88
2021/08/08 11:54:45;;;;;;;1.30;1.20;;;24.40;69.70;;;;;;5069536;28;20626;-89
2021/08/08 11:57:25;;;;;;;1.90;1.67;;;23.80;68.60;;;;;;5073209;28;20617;-89
2021/08/08 11:59:52;;;;;;;1.90;1.13;;;24.50;71.30;;;;;;5061117;28;21179;-88
2021/08/08 12:02:19;;;;;;;1.40;1.20;;;25.00;66.80;;;;;;5052357;28;20626;-89
2021/08/08 12:04:47;;;;;;;2.00;1.13;;;24.90;64.30;;;;;;5054105;28;20626;-87
2021/08/08 12:07:15;;;;;;;2.60;1.03;;;23.80;62.90;;;;;;5052997;28;20623;-87
2021/08/08 12:09:46;;;;;;;1.13;1.13;;;23.40;64.90;;;;;;5052583;28;20657;-88
2021/08/08 12:12:16;;;;;;;1.43;1.00;;;22.80;63.70;;;;;;5051978;28;20626;-87
2021/08/08 12:14:45;;;;;;;1.40;1.30;;;22.00;65.90;;;;;;5052756;28;20641;-85
2021/08/08 12:17:15;;;;;;;0.77;0.77;;;22.70;66.60;;;;;;5052683;28;20625;-85
2021/08/08 12:19:45;;;;;;;0.70;0.70;;;23.70;65.20;;;;;;5053178;28;20686;-85
2021/08/08 12:22:15;;;;;;;1.80;0.87;;;25.00;63.60;;;;;;5050786;28;20638;-88
2021/08/08 12:24:43;;;;;;;1.40;0.70;;;25.70;61.80;;;;;;5051735;28;20618;-85
2021/08/08 12:27:14;;;;;;;1.47;0.77;;;26.70;59.30;;;;;;5052468;28;20633;-86
2021/08/08 12:29:43;;;;;;;0.80;0.80;;;27.60;57.40;;;;;;5069615;28;20657;-89
2021/08/08 12:32:13;;;;;;;2.30;0.90;;;27.90;54.90;;;;;;5069580;28;20612;-86
2021/08/08 12:34:42;;;;;;;1.00;0.90;;;27.90;53.30;;;;;;5074053;28;20985;-85
2021/08/08 12:37:10;;;;;;;0.60;0.50;;;27.90;56.70;;;;;;5079985;28;20632;-86
2021/08/08 12:39:39;;;;;;;1.00;0.80;;;28.80;55.20;;;;;;5090589;28;21196;-87
2021/08/08 12:42:20;;;;;;;1.10;0.90;;;28.50;53.60;;;;;;5050801;28;20626;-86
2021/08/08 12:44:49;;;;;;;0.70;0.70;;;28.00;52.80;;;;;;5061561;28;21191;-86
2021/08/08 12:47:25;;;;;;;1.03;0.77;;;28.30;54.10;;;;;;5069025;28;20613;-86
2021/08/08 12:49:53;;;;;;;1.00;0.93;;;28.70;53.90;;;;;;5069812;28;20671;-88
2021/08/08 12:52:20;;;;;;;0.93;0.93;;;28.60;52.10;;;;;;5069349;28;21052;-87
2021/08/08 12:54:47;;;;;;;1.87;1.10;;;29.10;52.90;;;;;;5071003;28;20818;-85
2021/08/08 12:57:14;;;;;;;1.60;1.13;;;29.20;51.40;;;;;;5066728;28;20610;-85
2021/08/08 12:59:41;;;;;;;0.90;0.90;;;29.30;51.60;;;;;;5049995;28;20725;-87